San Fermin Berria — EBVW — position and weather

sailwx.info

Track history (hours):
 
Tides and Currents Weather Stations Pressure Air Temp Water Temp Dewpoint Dewpoint Depression Visibility Wind Speed Wind Dir Waves Ship Positions

San Fermin Berria

Last reported at 2015-Jul-03 20:15 UTC. Time now 2015-Jul-04 05:03 UTC.
Position N 43°23' W 001°47'.

Length 30 m.

Type: Fishing. MMSI: 224114650.

Date/timePositionNaut miles runAvg speedWind from/ knotsBaromVisibWave heightAir tempDewpointWater temp
2015-Jul-03 20:15N 43°23' W 001°47'0 0.0
2015-Jul-03 19:33N 43°23' W 001°47'  
2015-Jul-01 10:28N 43°25' W 001°52'3 3.8
2015-Jul-01 09:33N 43°23' W 001°47'  
2015-Jun-25 08:33N 43°23' W 001°48'0 0.0
2015-Jun-25 07:33N 43°23' W 001°48'0 0.0
2015-Jun-25 06:34N 43°23' W 001°48'0 0.0
2015-Jun-25 05:33N 43°23' W 001°48'0 0.0
2015-Jun-25 04:34N 43°23' W 001°48'5 4.7
2015-Jun-25 03:31N 43°26' W 001°53'24 3.3
2015-Jun-24 20:14N 43°28' W 002°27'6 9.4
2015-Jun-24 19:33N 43°29' W 002°35'9 8.6
2015-Jun-24 18:32N 43°29' W 002°47'  
Track history (hours):
 
Tides and Currents Weather Stations Pressure Air Temp Water Temp Dewpoint Dewpoint Depression Visibility Wind Speed Wind Dir Waves Ship Positions

San Fermin Berria

Last reported at 2015-Jul-03 20:15 UTC. Time now 2015-Jul-04 05:03 UTC.
Position N 43°23' W 001°47'.

Length 30 m.

Type: Fishing. MMSI: 224114650.

Date/timePositionNaut miles runAvg speedWind from/ knotsBaromVisibWave heightAir tempDewpointWater temp
2015-Jul-03 20:15N 43°23' W 001°47'0 0.0
2015-Jul-03 19:33N 43°23' W 001°47'  
2015-Jul-01 10:28N 43°25' W 001°52'3 3.8
2015-Jul-01 09:33N 43°23' W 001°47'  
2015-Jun-25 08:33N 43°23' W 001°48'0 0.0
2015-Jun-25 07:33N 43°23' W 001°48'0 0.0
2015-Jun-25 06:34N 43°23' W 001°48'0 0.0
2015-Jun-25 05:33N 43°23' W 001°48'0 0.0
2015-Jun-25 04:34N 43°23' W 001°48'5 4.7
2015-Jun-25 03:31N 43°26' W 001°53'24 3.3
2015-Jun-24 20:14N 43°28' W 002°27'6 9.4
2015-Jun-24 19:33N 43°29' W 002°35'9 8.6
2015-Jun-24 18:32N 43°29' W 002°47'  

Dump ship's entire track history